Ferreira, South Africa
Current Conditions -  °F | °C
As of 11:00 AM on Sunday 21 Dec 2014 (Local Time) from FABL Reporting Station
Clear Clear  
Wind Chill: 81°   Ceiling: Unl
Heat Index: 81°   Visibility: 6mi
Dew Point: 45°   Wind: 7mph
Humidity: 28%   Direction: 360°N
Pressure: 30.06"   Gusts: NA
Location:  29.2°S, 26.18°E
Report Text: FABL 210900Z 36006KT 330V040 CAVOK 27/07 Q1018 NOSIG
Loading
Personal Weather Stations






























Interactive Weather Map New forecast layout! Learn more

10-Day Weather Forecast

Advertisements
Track Severe Weather on mobile